sensor_id;sensor_type;location;lat;lon;timestamp;P1;durP1;ratioP1;P2;durP2;ratioP2
70761;SDS011;58360;0.000;0.000;2023-05-29T00:00:34;12.73;;;6.32;;
70761;SDS011;58360;0.000;0.000;2023-05-29T00:03:00;12.93;;;6.38;;
70761;SDS011;58360;0.000;0.000;2023-05-29T00:05:26;13.48;;;5.80;;
70761;SDS011;58360;0.000;0.000;2023-05-29T00:07:52;15.65;;;6.43;;
70761;SDS011;58360;0.000;0.000;2023-05-29T00:10:18;13.93;;;6.22;;
70761;SDS011;58360;0.000;0.000;2023-05-29T00:12:43;12.63;;;6.50;;
70761;SDS011;58360;0.000;0.000;2023-05-29T00:15:09;14.50;;;6.75;;
70761;SDS011;58360;0.000;0.000;2023-05-29T00:17:35;14.07;;;5.97;;
70761;SDS011;58360;0.000;0.000;2023-05-29T00:20:01;15.10;;;6.47;;
70761;SDS011;58360;0.000;0.000;2023-05-29T00:22:37;14.43;;;6.05;;
70761;SDS011;58360;0.000;0.000;2023-05-29T00:25:06;13.13;;;6.53;;
70761;SDS011;58360;0.000;0.000;2023-05-29T00:27:32;13.07;;;6.35;;
70761;SDS011;58360;0.000;0.000;2023-05-29T00:29:59;15.15;;;6.97;;
70761;SDS011;58360;0.000;0.000;2023-05-29T00:32:26;14.32;;;6.25;;
70761;SDS011;58360;0.000;0.000;2023-05-29T00:34:52;14.52;;;6.38;;
70761;SDS011;58360;0.000;0.000;2023-05-29T00:37:18;16.25;;;7.03;;
70761;SDS011;58360;0.000;0.000;2023-05-29T00:39:46;13.48;;;6.28;;
70761;SDS011;58360;0.000;0.000;2023-05-29T00:42:12;12.68;;;5.95;;
70761;SDS011;58360;0.000;0.000;2023-05-29T00:44:38;14.73;;;6.47;;
70761;SDS011;58360;0.000;0.000;2023-05-29T00:47:04;14.10;;;5.40;;
70761;SDS011;58360;0.000;0.000;2023-05-29T00:49:30;13.30;;;5.93;;
70761;SDS011;58360;0.000;0.000;2023-05-29T00:51:56;15.43;;;6.25;;
70761;SDS011;58360;0.000;0.000;2023-05-29T00:54:23;14.63;;;6.03;;
70761;SDS011;58360;0.000;0.000;2023-05-29T00:56:53;16.50;;;6.65;;
70761;SDS011;58360;0.000;0.000;2023-05-29T00:59:19;14.57;;;6.57;;
70761;SDS011;58360;0.000;0.000;2023-05-29T01:01:47;15.05;;;6.25;;
70761;SDS011;58360;0.000;0.000;2023-05-29T01:04:15;14.10;;;5.65;;
70761;SDS011;58360;0.000;0.000;2023-05-29T01:06:41;14.02;;;6.28;;
70761;SDS011;58360;0.000;0.000;2023-05-29T01:09:07;17.50;;;5.78;;
70761;SDS011;58360;0.000;0.000;2023-05-29T01:11:45;17.20;;;6.07;;
70761;SDS011;58360;0.000;0.000;2023-05-29T01:14:32;17.52;;;5.88;;
70761;SDS011;58360;0.000;0.000;2023-05-29T01:23:19;14.50;;;5.40;;
70761;SDS011;58360;0.000;0.000;2023-05-29T01:31:21;14.98;;;5.15;;
70761;SDS011;58360;0.000;0.000;2023-05-29T01:33:53;16.05;;;5.70;;
70761;SDS011;58360;0.000;0.000;2023-05-29T01:36:24;17.08;;;5.32;;
70761;SDS011;58360;0.000;0.000;2023-05-29T01:38:51;13.85;;;4.68;;
70761;SDS011;58360;0.000;0.000;2023-05-29T01:41:19;13.88;;;5.50;;
70761;SDS011;58360;0.000;0.000;2023-05-29T01:43:47;12.68;;;4.55;;
70761;SDS011;58360;0.000;0.000;2023-05-29T01:46:13;18.00;;;4.75;;
70761;SDS011;58360;0.000;0.000;2023-05-29T01:48:43;14.52;;;5.13;;
70761;SDS011;58360;0.000;0.000;2023-05-29T01:51:10;11.10;;;4.20;;
70761;SDS011;58360;0.000;0.000;2023-05-29T01:53:37;13.88;;;4.95;;
70761;SDS011;58360;0.000;0.000;2023-05-29T01:56:06;11.07;;;3.90;;
70761;SDS011;58360;0.000;0.000;2023-05-29T01:58:33;15.38;;;4.82;;
70761;SDS011;58360;0.000;0.000;2023-05-29T02:01:01;15.40;;;4.53;;
70761;SDS011;58360;0.000;0.000;2023-05-29T02:03:28;15.40;;;4.50;;
70761;SDS011;58360;0.000;0.000;2023-05-29T02:05:54;16.52;;;4.43;;
70761;SDS011;58360;0.000;0.000;2023-05-29T02:08:24;11.60;;;3.95;;
70761;SDS011;58360;0.000;0.000;2023-05-29T02:10:49;14.80;;;4.90;;
70761;SDS011;58360;0.000;0.000;2023-05-29T02:13:16;13.63;;;3.70;;
70761;SDS011;58360;0.000;0.000;2023-05-29T02:15:42;17.33;;;4.07;;
70761;SDS011;58360;0.000;0.000;2023-05-29T02:18:09;15.48;;;3.70;;
70761;SDS011;58360;0.000;0.000;2023-05-29T02:20:37;16.33;;;3.97;;
70761;SDS011;58360;0.000;0.000;2023-05-29T02:23:02;12.50;;;3.88;;
70761;SDS011;58360;0.000;0.000;2023-05-29T02:25:28;12.05;;;3.63;;
70761;SDS011;58360;0.000;0.000;2023-05-29T02:27:54;15.15;;;3.95;;
70761;SDS011;58360;0.000;0.000;2023-05-29T02:30:19;18.90;;;3.65;;
70761;SDS011;58360;0.000;0.000;2023-05-29T02:32:45;12.38;;;3.53;;
70761;SDS011;58360;0.000;0.000;2023-05-29T02:35:11;17.83;;;4.00;;
70761;SDS011;58360;0.000;0.000;2023-05-29T02:37:40;16.42;;;3.83;;
70761;SDS011;58360;0.000;0.000;2023-05-29T02:40:06;15.57;;;4.20;;
70761;SDS011;58360;0.000;0.000;2023-05-29T02:42:33;13.70;;;3.38;;
70761;SDS011;58360;0.000;0.000;2023-05-29T02:44:59;14.77;;;3.63;;
70761;SDS011;58360;0.000;0.000;2023-05-29T02:47:24;10.90;;;3.45;;
70761;SDS011;58360;0.000;0.000;2023-05-29T02:49:50;15.15;;;4.38;;
70761;SDS011;58360;0.000;0.000;2023-05-29T02:52:15;12.70;;;3.83;;
70761;SDS011;58360;0.000;0.000;2023-05-29T02:54:41;14.15;;;3.47;;
70761;SDS011;58360;0.000;0.000;2023-05-29T02:57:07;16.10;;;4.07;;
70761;SDS011;58360;0.000;0.000;2023-05-29T02:59:32;13.38;;;3.22;;
70761;SDS011;58360;0.000;0.000;2023-05-29T03:01:58;13.43;;;3.33;;
70761;SDS011;58360;0.000;0.000;2023-05-29T03:04:24;15.40;;;3.45;;
70761;SDS011;58360;0.000;0.000;2023-05-29T03:06:49;18.17;;;3.80;;
70761;SDS011;58360;0.000;0.000;2023-05-29T03:09:18;16.50;;;4.10;;
70761;SDS011;58360;0.000;0.000;2023-05-29T03:11:44;15.50;;;3.75;;
70761;SDS011;58360;0.000;0.000;2023-05-29T03:14:12;14.18;;;3.10;;
70761;SDS011;58360;0.000;0.000;2023-05-29T03:16:38;13.77;;;3.38;;
70761;SDS011;58360;0.000;0.000;2023-05-29T03:19:05;15.30;;;3.58;;
70761;SDS011;58360;0.000;0.000;2023-05-29T03:21:32;12.05;;;3.00;;
70761;SDS011;58360;0.000;0.000;2023-05-29T03:23:58;14.82;;;3.85;;
70761;SDS011;58360;0.000;0.000;2023-05-29T03:26:24;14.32;;;3.47;;
70761;SDS011;58360;0.000;0.000;2023-05-29T03:28:50;12.50;;;3.90;;
70761;SDS011;58360;0.000;0.000;2023-05-29T03:31:16;19.13;;;3.75;;
70761;SDS011;58360;0.000;0.000;2023-05-29T03:33:42;16.15;;;4.03;;
70761;SDS011;58360;0.000;0.000;2023-05-29T03:36:07;17.23;;;3.63;;
70761;SDS011;58360;0.000;0.000;2023-05-29T03:38:33;14.60;;;3.55;;
70761;SDS011;58360;0.000;0.000;2023-05-29T03:40:59;12.90;;;3.60;;
70761;SDS011;58360;0.000;0.000;2023-05-29T03:43:25;13.77;;;3.45;;
70761;SDS011;58360;0.000;0.000;2023-05-29T03:45:50;22.45;;;3.85;;
70761;SDS011;58360;0.000;0.000;2023-05-29T03:48:16;17.27;;;3.90;;
70761;SDS011;58360;0.000;0.000;2023-05-29T03:50:42;18.75;;;3.22;;
70761;SDS011;58360;0.000;0.000;2023-05-29T03:53:07;14.63;;;3.83;;
70761;SDS011;58360;0.000;0.000;2023-05-29T03:55:33;15.43;;;3.78;;
70761;SDS011;58360;0.000;0.000;2023-05-29T03:57:59;15.32;;;3.30;;
70761;SDS011;58360;0.000;0.000;2023-05-29T04:00:25;18.02;;;3.90;;
70761;SDS011;58360;0.000;0.000;2023-05-29T04:02:50;16.48;;;3.50;;
70761;SDS011;58360;0.000;0.000;2023-05-29T04:05:16;15.80;;;3.78;;
70761;SDS011;58360;0.000;0.000;2023-05-29T04:07:42;15.57;;;3.75;;
70761;SDS011;58360;0.000;0.000;2023-05-29T04:10:08;15.27;;;3.80;;
70761;SDS011;58360;0.000;0.000;2023-05-29T04:12:33;15.45;;;4.07;;
70761;SDS011;58360;0.000;0.000;2023-05-29T04:14:59;13.50;;;3.45;;
70761;SDS011;58360;0.000;0.000;2023-05-29T04:17:25;17.92;;;3.92;;
70761;SDS011;58360;0.000;0.000;2023-05-29T04:19:51;15.20;;;3.40;;
70761;SDS011;58360;0.000;0.000;2023-05-29T04:22:17;17.45;;;3.88;;
70761;SDS011;58360;0.000;0.000;2023-05-29T04:24:43;14.45;;;3.58;;
70761;SDS011;58360;0.000;0.000;2023-05-29T04:27:09;14.52;;;3.42;;
70761;SDS011;58360;0.000;0.000;2023-05-29T04:29:38;17.42;;;3.30;;
70761;SDS011;58360;0.000;0.000;2023-05-29T04:32:07;16.80;;;3.65;;
70761;SDS011;58360;0.000;0.000;2023-05-29T04:34:34;14.75;;;3.95;;
70761;SDS011;58360;0.000;0.000;2023-05-29T04:37:01;17.25;;;3.45;;
70761;SDS011;58360;0.000;0.000;2023-05-29T04:39:28;15.23;;;4.18;;
70761;SDS011;58360;0.000;0.000;2023-05-29T04:41:53;23.90;;;4.05;;
70761;SDS011;58360;0.000;0.000;2023-05-29T04:44:21;13.07;;;3.55;;
70761;SDS011;58360;0.000;0.000;2023-05-29T04:46:47;15.13;;;3.60;;
70761;SDS011;58360;0.000;0.000;2023-05-29T04:49:13;19.35;;;4.40;;
70761;SDS011;58360;0.000;0.000;2023-05-29T04:51:39;13.27;;;3.22;;
70761;SDS011;58360;0.000;0.000;2023-05-29T04:54:08;15.05;;;3.97;;
70761;SDS011;58360;0.000;0.000;2023-05-29T04:56:34;17.40;;;3.67;;
70761;SDS011;58360;0.000;0.000;2023-05-29T04:59:00;14.75;;;3.45;;
70761;SDS011;58360;0.000;0.000;2023-05-29T05:01:26;20.10;;;4.47;;
70761;SDS011;58360;0.000;0.000;2023-05-29T05:03:51;21.00;;;3.80;;
70761;SDS011;58360;0.000;0.000;2023-05-29T05:06:21;16.30;;;3.58;;
70761;SDS011;58360;0.000;0.000;2023-05-29T05:08:47;21.02;;;4.10;;
70761;SDS011;58360;0.000;0.000;2023-05-29T05:11:12;19.85;;;3.63;;
70761;SDS011;58360;0.000;0.000;2023-05-29T05:13:39;18.20;;;3.42;;
70761;SDS011;58360;0.000;0.000;2023-05-29T05:16:05;17.63;;;3.83;;
70761;SDS011;58360;0.000;0.000;2023-05-29T05:18:33;15.15;;;3.80;;
70761;SDS011;58360;0.000;0.000;2023-05-29T05:20:58;20.30;;;3.92;;
70761;SDS011;58360;0.000;0.000;2023-05-29T05:23:24;15.05;;;3.33;;
70761;SDS011;58360;0.000;0.000;2023-05-29T05:25:50;16.15;;;2.88;;
70761;SDS011;58360;0.000;0.000;2023-05-29T05:28:16;20.63;;;4.13;;
70761;SDS011;58360;0.000;0.000;2023-05-29T05:30:41;17.38;;;3.88;;
70761;SDS011;58360;0.000;0.000;2023-05-29T05:33:07;15.90;;;3.38;;
70761;SDS011;58360;0.000;0.000;2023-05-29T05:35:33;14.60;;;3.50;;
70761;SDS011;58360;0.000;0.000;2023-05-29T05:37:59;15.95;;;3.60;;
70761;SDS011;58360;0.000;0.000;2023-05-29T05:40:25;17.70;;;3.72;;
70761;SDS011;58360;0.000;0.000;2023-05-29T05:42:51;13.73;;;3.33;;
70761;SDS011;58360;0.000;0.000;2023-05-29T05:45:17;20.10;;;3.80;;
70761;SDS011;58360;0.000;0.000;2023-05-29T05:47:42;18.73;;;3.63;;
70761;SDS011;58360;0.000;0.000;2023-05-29T05:50:08;12.63;;;3.08;;
70761;SDS011;58360;0.000;0.000;2023-05-29T05:52:34;20.05;;;3.90;;
70761;SDS011;58360;0.000;0.000;2023-05-29T05:55:00;21.63;;;4.45;;
70761;SDS011;58360;0.000;0.000;2023-05-29T05:57:25;17.83;;;3.75;;
70761;SDS011;58360;0.000;0.000;2023-05-29T05:59:52;19.77;;;4.13;;
70761;SDS011;58360;0.000;0.000;2023-05-29T06:02:19;17.33;;;4.22;;
70761;SDS011;58360;0.000;0.000;2023-05-29T06:04:45;13.82;;;2.97;;
70761;SDS011;58360;0.000;0.000;2023-05-29T06:07:10;17.23;;;3.92;;
70761;SDS011;58360;0.000;0.000;2023-05-29T06:09:36;18.52;;;3.92;;
70761;SDS011;58360;0.000;0.000;2023-05-29T06:12:02;15.18;;;3.33;;
70761;SDS011;58360;0.000;0.000;2023-05-29T06:14:29;13.90;;;3.35;;
70761;SDS011;58360;0.000;0.000;2023-05-29T06:16:55;19.33;;;3.63;;
70761;SDS011;58360;0.000;0.000;2023-05-29T06:19:21;17.13;;;3.40;;
70761;SDS011;58360;0.000;0.000;2023-05-29T06:21:47;11.60;;;3.30;;
70761;SDS011;58360;0.000;0.000;2023-05-29T06:24:12;17.55;;;3.55;;
70761;SDS011;58360;0.000;0.000;2023-05-29T06:26:38;18.38;;;3.60;;
70761;SDS011;58360;0.000;0.000;2023-05-29T06:29:04;12.50;;;3.25;;
70761;SDS011;58360;0.000;0.000;2023-05-29T06:31:31;12.43;;;2.95;;
70761;SDS011;58360;0.000;0.000;2023-05-29T06:33:58;13.50;;;3.67;;
70761;SDS011;58360;0.000;0.000;2023-05-29T06:36:24;16.65;;;3.45;;
70761;SDS011;58360;0.000;0.000;2023-05-29T06:38:50;17.55;;;3.22;;
70761;SDS011;58360;0.000;0.000;2023-05-29T06:41:15;18.50;;;3.40;;
70761;SDS011;58360;0.000;0.000;2023-05-29T06:43:41;18.67;;;4.18;;
70761;SDS011;58360;0.000;0.000;2023-05-29T06:46:07;21.35;;;3.97;;
70761;SDS011;58360;0.000;0.000;2023-05-29T06:48:33;13.55;;;3.33;;
70761;SDS011;58360;0.000;0.000;2023-05-29T06:51:00;14.05;;;3.00;;
70761;SDS011;58360;0.000;0.000;2023-05-29T06:53:36;15.90;;;3.55;;
70761;SDS011;58360;0.000;0.000;2023-05-29T06:56:05;12.77;;;3.33;;
70761;SDS011;58360;0.000;0.000;2023-05-29T06:58:31;12.50;;;3.35;;
70761;SDS011;58360;0.000;0.000;2023-05-29T07:00:57;9.43;;;2.60;;
70761;SDS011;58360;0.000;0.000;2023-05-29T07:03:27;10.90;;;3.28;;
70761;SDS011;58360;0.000;0.000;2023-05-29T07:05:54;11.30;;;3.28;;
70761;SDS011;58360;0.000;0.000;2023-05-29T07:08:19;13.20;;;3.33;;
70761;SDS011;58360;0.000;0.000;2023-05-29T07:10:45;11.48;;;3.13;;
70761;SDS011;58360;0.000;0.000;2023-05-29T07:13:15;12.60;;;3.42;;
70761;SDS011;58360;0.000;0.000;2023-05-29T07:15:41;13.25;;;3.42;;
70761;SDS011;58360;0.000;0.000;2023-05-29T07:18:07;12.07;;;2.85;;
70761;SDS011;58360;0.000;0.000;2023-05-29T07:20:33;11.05;;;3.30;;
70761;SDS011;58360;0.000;0.000;2023-05-29T07:22:59;10.60;;;3.67;;
70761;SDS011;58360;0.000;0.000;2023-05-29T07:25:24;12.75;;;3.30;;
70761;SDS011;58360;0.000;0.000;2023-05-29T07:27:51;11.90;;;3.10;;
70761;SDS011;58360;0.000;0.000;2023-05-29T07:30:17;12.73;;;3.85;;
70761;SDS011;58360;0.000;0.000;2023-05-29T07:32:43;15.23;;;4.50;;
70761;SDS011;58360;0.000;0.000;2023-05-29T07:35:09;11.60;;;2.85;;
70761;SDS011;58360;0.000;0.000;2023-05-29T07:37:35;10.75;;;2.97;;
70761;SDS011;58360;0.000;0.000;2023-05-29T07:40:00;14.55;;;3.58;;
70761;SDS011;58360;0.000;0.000;2023-05-29T07:42:30;11.55;;;3.20;;
70761;SDS011;58360;0.000;0.000;2023-05-29T07:44:57;12.82;;;3.25;;
70761;SDS011;58360;0.000;0.000;2023-05-29T07:47:23;12.05;;;3.53;;
70761;SDS011;58360;0.000;0.000;2023-05-29T07:49:48;12.75;;;3.40;;
70761;SDS011;58360;0.000;0.000;2023-05-29T07:52:15;12.50;;;3.97;;
70761;SDS011;58360;0.000;0.000;2023-05-29T07:54:40;12.82;;;3.83;;
70761;SDS011;58360;0.000;0.000;2023-05-29T07:57:06;12.27;;;3.28;;
70761;SDS011;58360;0.000;0.000;2023-05-29T07:59:35;17.17;;;4.25;;
70761;SDS011;58360;0.000;0.000;2023-05-29T08:02:01;10.90;;;3.40;;
70761;SDS011;58360;0.000;0.000;2023-05-29T08:04:29;14.48;;;3.58;;
70761;SDS011;58360;0.000;0.000;2023-05-29T08:06:58;13.10;;;3.22;;
70761;SDS011;58360;0.000;0.000;2023-05-29T08:09:28;8.52;;;3.08;;
70761;SDS011;58360;0.000;0.000;2023-05-29T08:11:55;12.85;;;3.20;;
70761;SDS011;58360;0.000;0.000;2023-05-29T08:14:21;11.23;;;3.17;;
70761;SDS011;58360;0.000;0.000;2023-05-29T08:16:47;12.55;;;3.20;;
70761;SDS011;58360;0.000;0.000;2023-05-29T08:19:13;11.70;;;3.60;;
70761;SDS011;58360;0.000;0.000;2023-05-29T08:21:38;12.50;;;3.53;;
70761;SDS011;58360;0.000;0.000;2023-05-29T08:24:04;9.95;;;3.22;;
70761;SDS011;58360;0.000;0.000;2023-05-29T08:26:31;11.25;;;3.08;;
70761;SDS011;58360;0.000;0.000;2023-05-29T08:28:57;10.50;;;3.25;;
70761;SDS011;58360;0.000;0.000;2023-05-29T08:31:23;15.68;;;3.58;;
70761;SDS011;58360;0.000;0.000;2023-05-29T08:33:52;9.95;;;3.22;;
70761;SDS011;58360;0.000;0.000;2023-05-29T08:36:18;11.27;;;3.10;;
70761;SDS011;58360;0.000;0.000;2023-05-29T08:38:50;11.68;;;3.47;;
70761;SDS011;58360;0.000;0.000;2023-05-29T08:44:11;16.38;;;3.67;;
70761;SDS011;58360;0.000;0.000;2023-05-29T08:46:39;10.68;;;3.38;;
70761;SDS011;58360;0.000;0.000;2023-05-29T08:49:05;11.57;;;3.30;;
70761;SDS011;58360;0.000;0.000;2023-05-29T08:51:35;13.63;;;3.65;;
70761;SDS011;58360;0.000;0.000;2023-05-29T08:54:05;11.77;;;3.22;;
70761;SDS011;58360;0.000;0.000;2023-05-29T08:56:32;10.73;;;3.10;;
70761;SDS011;58360;0.000;0.000;2023-05-29T08:58:59;10.95;;;3.72;;
70761;SDS011;58360;0.000;0.000;2023-05-29T09:01:26;12.68;;;3.38;;
70761;SDS011;58360;0.000;0.000;2023-05-29T09:03:52;11.48;;;3.53;;
70761;SDS011;58360;0.000;0.000;2023-05-29T09:06:19;12.60;;;3.30;;
70761;SDS011;58360;0.000;0.000;2023-05-29T09:08:50;13.00;;;2.95;;
70761;SDS011;58360;0.000;0.000;2023-05-29T09:11:17;9.93;;;2.88;;
70761;SDS011;58360;0.000;0.000;2023-05-29T09:13:42;9.35;;;3.10;;
70761;SDS011;58360;0.000;0.000;2023-05-29T09:16:08;9.93;;;3.35;;
70761;SDS011;58360;0.000;0.000;2023-05-29T09:18:35;12.43;;;3.35;;
70761;SDS011;58360;0.000;0.000;2023-05-29T09:21:05;11.18;;;3.10;;
70761;SDS011;58360;0.000;0.000;2023-05-29T09:23:35;12.80;;;3.10;;
70761;SDS011;58360;0.000;0.000;2023-05-29T09:26:02;15.85;;;3.17;;
70761;SDS011;58360;0.000;0.000;2023-05-29T09:28:28;12.25;;;2.88;;
70761;SDS011;58360;0.000;0.000;2023-05-29T09:30:56;14.18;;;3.05;;
70761;SDS011;58360;0.000;0.000;2023-05-29T09:33:22;13.57;;;3.13;;
70761;SDS011;58360;0.000;0.000;2023-05-29T09:35:48;11.95;;;3.10;;
70761;SDS011;58360;0.000;0.000;2023-05-29T09:38:19;9.48;;;3.28;;
70761;SDS011;58360;0.000;0.000;2023-05-29T09:40:45;9.13;;;2.83;;
70761;SDS011;58360;0.000;0.000;2023-05-29T09:43:12;9.05;;;3.08;;
70761;SDS011;58360;0.000;0.000;2023-05-29T09:45:48;14.10;;;3.55;;
70761;SDS011;58360;0.000;0.000;2023-05-29T09:48:16;8.32;;;2.70;;
70761;SDS011;58360;0.000;0.000;2023-05-29T09:50:43;8.02;;;2.70;;
70761;SDS011;58360;0.000;0.000;2023-05-29T09:53:16;9.85;;;2.95;;
70761;SDS011;58360;0.000;0.000;2023-05-29T09:55:47;10.50;;;3.10;;
70761;SDS011;58360;0.000;0.000;2023-05-29T09:58:13;7.85;;;2.50;;
70761;SDS011;58360;0.000;0.000;2023-05-29T10:00:44;8.85;;;3.17;;
70761;SDS011;58360;0.000;0.000;2023-05-29T10:03:10;9.35;;;3.00;;
70761;SDS011;58360;0.000;0.000;2023-05-29T10:05:39;9.00;;;2.65;;
70761;SDS011;58360;0.000;0.000;2023-05-29T10:08:12;11.57;;;3.00;;
70761;SDS011;58360;0.000;0.000;2023-05-29T10:10:42;13.40;;;3.25;;
70761;SDS011;58360;0.000;0.000;2023-05-29T10:13:13;7.90;;;3.05;;
70761;SDS011;58360;0.000;0.000;2023-05-29T10:15:41;12.18;;;3.00;;
70761;SDS011;58360;0.000;0.000;2023-05-29T10:18:20;10.82;;;3.15;;
70761;SDS011;58360;0.000;0.000;2023-05-29T10:20:50;14.75;;;3.28;;
70761;SDS011;58360;0.000;0.000;2023-05-29T10:23:21;8.13;;;3.05;;
70761;SDS011;58360;0.000;0.000;2023-05-29T10:25:52;11.02;;;2.97;;
70761;SDS011;58360;0.000;0.000;2023-05-29T10:28:22;11.05;;;3.03;;
70761;SDS011;58360;0.000;0.000;2023-05-29T10:30:53;8.77;;;3.00;;
70761;SDS011;58360;0.000;0.000;2023-05-29T10:38:35;13.48;;;3.30;;
70761;SDS011;58360;0.000;0.000;2023-05-29T10:41:47;13.25;;;3.28;;
70761;SDS011;58360;0.000;0.000;2023-05-29T10:43:53;9.70;;;3.03;;
70761;SDS011;58360;0.000;0.000;2023-05-29T10:46:20;8.95;;;2.97;;
70761;SDS011;58360;0.000;0.000;2023-05-29T10:48:47;9.68;;;3.10;;
70761;SDS011;58360;0.000;0.000;2023-05-29T10:51:27;9.75;;;3.00;;
70761;SDS011;58360;0.000;0.000;2023-05-29T10:53:54;8.33;;;2.83;;
70761;SDS011;58360;0.000;0.000;2023-05-29T10:56:28;8.60;;;3.20;;
70761;SDS011;58360;0.000;0.000;2023-05-29T10:58:57;9.10;;;3.38;;
70761;SDS011;58360;0.000;0.000;2023-05-29T11:01:26;8.70;;;2.92;;
70761;SDS011;58360;0.000;0.000;2023-05-29T11:06:42;11.88;;;2.95;;
70761;SDS011;58360;0.000;0.000;2023-05-29T11:15:09;11.75;;;3.03;;
70761;SDS011;58360;0.000;0.000;2023-05-29T11:20:05;8.07;;;2.95;;
70761;SDS011;58360;0.000;0.000;2023-05-29T11:25:17;9.90;;;2.97;;
70761;SDS011;58360;0.000;0.000;2023-05-29T11:27:43;8.52;;;3.00;;
70761;SDS011;58360;0.000;0.000;2023-05-29T11:30:10;10.75;;;3.53;;
70761;SDS011;58360;0.000;0.000;2023-05-29T11:32:37;11.20;;;3.10;;
70761;SDS011;58360;0.000;0.000;2023-05-29T11:35:07;10.05;;;3.25;;
70761;SDS011;58360;0.000;0.000;2023-05-29T11:37:42;9.77;;;3.05;;
70761;SDS011;58360;0.000;0.000;2023-05-29T11:40:10;8.25;;;2.80;;
70761;SDS011;58360;0.000;0.000;2023-05-29T11:42:41;12.48;;;2.80;;
70761;SDS011;58360;0.000;0.000;2023-05-29T11:45:21;11.57;;;3.17;;
70761;SDS011;58360;0.000;0.000;2023-05-29T11:47:57;9.05;;;2.83;;
70761;SDS011;58360;0.000;0.000;2023-05-29T11:50:27;10.73;;;2.90;;
70761;SDS011;58360;0.000;0.000;2023-05-29T11:52:55;9.50;;;3.00;;
70761;SDS011;58360;0.000;0.000;2023-05-29T11:55:21;8.13;;;3.08;;
70761;SDS011;58360;0.000;0.000;2023-05-29T11:57:48;8.02;;;2.83;;
70761;SDS011;58360;0.000;0.000;2023-05-29T12:00:15;8.38;;;2.90;;
70761;SDS011;58360;0.000;0.000;2023-05-29T12:02:43;7.88;;;2.92;;
70761;SDS011;58360;0.000;0.000;2023-05-29T12:05:12;8.65;;;2.95;;
70761;SDS011;58360;0.000;0.000;2023-05-29T12:07:50;9.60;;;3.30;;
70761;SDS011;58360;0.000;0.000;2023-05-29T12:10:16;9.75;;;3.10;;
70761;SDS011;58360;0.000;0.000;2023-05-29T12:12:47;9.23;;;2.83;;
70761;SDS011;58360;0.000;0.000;2023-05-29T12:15:13;9.82;;;2.78;;
70761;SDS011;58360;0.000;0.000;2023-05-29T12:17:40;10.88;;;3.00;;
70761;SDS011;58360;0.000;0.000;2023-05-29T12:20:06;11.00;;;2.92;;
70761;SDS011;58360;0.000;0.000;2023-05-29T12:22:34;12.18;;;3.15;;
70761;SDS011;58360;0.000;0.000;2023-05-29T12:25:11;7.43;;;2.63;;
70761;SDS011;58360;0.000;0.000;2023-05-29T12:27:41;9.10;;;3.33;;
70761;SDS011;58360;0.000;0.000;2023-05-29T12:30:26;11.30;;;3.22;;
70761;SDS011;58360;0.000;0.000;2023-05-29T12:32:53;11.55;;;2.67;;
70761;SDS011;58360;0.000;0.000;2023-05-29T12:35:22;12.98;;;3.60;;
70761;SDS011;58360;0.000;0.000;2023-05-29T12:40:23;8.02;;;2.50;;
70761;SDS011;58360;0.000;0.000;2023-05-29T12:42:54;14.38;;;3.30;;
70761;SDS011;58360;0.000;0.000;2023-05-29T12:45:21;12.30;;;3.00;;
70761;SDS011;58360;0.000;0.000;2023-05-29T12:47:56;8.63;;;3.22;;
70761;SDS011;58360;0.000;0.000;2023-05-29T12:50:27;12.25;;;2.80;;
70761;SDS011;58360;0.000;0.000;2023-05-29T12:53:11;7.40;;;2.60;;
70761;SDS011;58360;0.000;0.000;2023-05-29T12:55:38;7.75;;;2.63;;
70761;SDS011;58360;0.000;0.000;2023-05-29T12:58:12;14.02;;;3.33;;
70761;SDS011;58360;0.000;0.000;2023-05-29T13:03:05;13.10;;;3.08;;
70761;SDS011;58360;0.000;0.000;2023-05-29T13:05:32;10.68;;;3.03;;
70761;SDS011;58360;0.000;0.000;2023-05-29T13:07:58;14.60;;;3.28;;
70761;SDS011;58360;0.000;0.000;2023-05-29T13:10:24;10.23;;;3.00;;
70761;SDS011;58360;0.000;0.000;2023-05-29T13:12:50;11.18;;;3.08;;
70761;SDS011;58360;0.000;0.000;2023-05-29T13:15:20;10.27;;;2.95;;
70761;SDS011;58360;0.000;0.000;2023-05-29T13:17:46;11.98;;;2.80;;
70761;SDS011;58360;0.000;0.000;2023-05-29T13:20:12;11.50;;;3.10;;
70761;SDS011;58360;0.000;0.000;2023-05-29T13:22:40;13.82;;;3.03;;
70761;SDS011;58360;0.000;0.000;2023-05-29T13:25:07;10.75;;;2.80;;
70761;SDS011;58360;0.000;0.000;2023-05-29T13:27:38;8.70;;;2.88;;
70761;SDS011;58360;0.000;0.000;2023-05-29T13:30:08;10.68;;;3.33;;
70761;SDS011;58360;0.000;0.000;2023-05-29T13:32:35;7.18;;;2.60;;
70761;SDS011;58360;0.000;0.000;2023-05-29T13:35:01;10.45;;;2.65;;
70761;SDS011;58360;0.000;0.000;2023-05-29T13:37:27;10.88;;;3.15;;
70761;SDS011;58360;0.000;0.000;2023-05-29T13:39:53;11.60;;;2.95;;
70761;SDS011;58360;0.000;0.000;2023-05-29T13:42:19;10.23;;;2.72;;
70761;SDS011;58360;0.000;0.000;2023-05-29T13:44:45;10.23;;;3.58;;
70761;SDS011;58360;0.000;0.000;2023-05-29T13:47:12;10.40;;;3.35;;
70761;SDS011;58360;0.000;0.000;2023-05-29T13:49:38;9.85;;;3.20;;
70761;SDS011;58360;0.000;0.000;2023-05-29T13:52:04;9.85;;;2.60;;
70761;SDS011;58360;0.000;0.000;2023-05-29T13:54:30;9.95;;;2.97;;
70761;SDS011;58360;0.000;0.000;2023-05-29T13:57:00;10.63;;;3.20;;
70761;SDS011;58360;0.000;0.000;2023-05-29T13:59:31;8.82;;;2.58;;
70761;SDS011;58360;0.000;0.000;2023-05-29T14:01:57;11.77;;;2.92;;
70761;SDS011;58360;0.000;0.000;2023-05-29T14:04:23;7.80;;;2.50;;
70761;SDS011;58360;0.000;0.000;2023-05-29T14:06:49;13.88;;;3.30;;
70761;SDS011;58360;0.000;0.000;2023-05-29T14:09:15;10.30;;;2.63;;
70761;SDS011;58360;0.000;0.000;2023-05-29T14:11:41;8.07;;;2.90;;
70761;SDS011;58360;0.000;0.000;2023-05-29T14:14:07;10.57;;;3.10;;
70761;SDS011;58360;0.000;0.000;2023-05-29T14:16:33;9.07;;;2.45;;
70761;SDS011;58360;0.000;0.000;2023-05-29T14:18:59;9.90;;;3.03;;
70761;SDS011;58360;0.000;0.000;2023-05-29T14:21:26;13.05;;;3.17;;
70761;SDS011;58360;0.000;0.000;2023-05-29T14:23:51;10.85;;;3.03;;
70761;SDS011;58360;0.000;0.000;2023-05-29T14:26:17;8.73;;;3.10;;
70761;SDS011;58360;0.000;0.000;2023-05-29T14:28:43;10.55;;;2.90;;
70761;SDS011;58360;0.000;0.000;2023-05-29T14:31:09;8.65;;;2.63;;
70761;SDS011;58360;0.000;0.000;2023-05-29T14:33:35;8.75;;;3.20;;
70761;SDS011;58360;0.000;0.000;2023-05-29T14:36:03;8.60;;;2.97;;
70761;SDS011;58360;0.000;0.000;2023-05-29T14:38:29;9.70;;;3.17;;
70761;SDS011;58360;0.000;0.000;2023-05-29T14:40:55;8.85;;;2.85;;
70761;SDS011;58360;0.000;0.000;2023-05-29T14:43:20;10.23;;;3.20;;
70761;SDS011;58360;0.000;0.000;2023-05-29T14:45:48;12.02;;;2.85;;
70761;SDS011;58360;0.000;0.000;2023-05-29T14:48:13;12.30;;;2.80;;
70761;SDS011;58360;0.000;0.000;2023-05-29T14:50:41;10.45;;;2.72;;
70761;SDS011;58360;0.000;0.000;2023-05-29T14:53:07;11.57;;;2.58;;
70761;SDS011;58360;0.000;0.000;2023-05-29T14:55:32;10.77;;;3.00;;
70761;SDS011;58360;0.000;0.000;2023-05-29T14:58:02;12.00;;;3.03;;
70761;SDS011;58360;0.000;0.000;2023-05-29T15:00:30;22.33;;;3.25;;
70761;SDS011;58360;0.000;0.000;2023-05-29T15:02:57;9.43;;;3.00;;
70761;SDS011;58360;0.000;0.000;2023-05-29T15:05:27;8.15;;;2.80;;
70761;SDS011;58360;0.000;0.000;2023-05-29T15:07:54;9.75;;;2.67;;
70761;SDS011;58360;0.000;0.000;2023-05-29T15:10:24;10.05;;;3.38;;
70761;SDS011;58360;0.000;0.000;2023-05-29T15:12:52;9.18;;;3.03;;
70761;SDS011;58360;0.000;0.000;2023-05-29T15:15:25;7.75;;;2.80;;
70761;SDS011;58360;0.000;0.000;2023-05-29T15:17:52;14.35;;;3.08;;
70761;SDS011;58360;0.000;0.000;2023-05-29T15:20:24;15.20;;;3.28;;
70761;SDS011;58360;0.000;0.000;2023-05-29T15:22:51;15.15;;;3.08;;
70761;SDS011;58360;0.000;0.000;2023-05-29T15:25:17;10.00;;;2.58;;
70761;SDS011;58360;0.000;0.000;2023-05-29T15:27:45;15.30;;;3.55;;
70761;SDS011;58360;0.000;0.000;2023-05-29T15:30:11;12.35;;;3.35;;